Time;durP1;ratioP1;P1;durP2;ratioP2;P2;SDS_P1;SDS_P2;PMS_P1;PMS_P2;Temp;Humidity;BMP_temperature;BMP_pressure;BME280_temperature;BME280_humidity;BME280_pressure;Samples;Min_cycle;Max_cycle;Signal;HPM_P1;HPM_P2
2022/12/28 00:00:14;;;;;;;35.70;31.95;;;8.50;99.90;;;;;;4220650;28;20086;-82
2022/12/28 00:02:34;;;;;;;42.25;34.85;;;8.50;99.90;;;;;;4233694;28;20062;-81
2022/12/28 00:04:54;;;;;;;30.38;26.45;;;8.50;99.90;;;;;;4228560;28;20070;-82
2022/12/28 00:07:13;;;;;;;28.95;26.00;;;8.50;99.90;;;;;;4223446;28;20137;-82
2022/12/28 00:09:33;;;;;;;32.33;27.73;;;8.60;99.90;;;;;;4232644;28;20368;-82
2022/12/28 00:11:57;;;;;;;28.23;25.38;;;8.60;99.90;;;;;;4232454;28;20062;-82
2022/12/28 00:14:17;;;;;;;29.27;26.02;;;8.60;99.90;;;;;;4237506;28;20115;-82
2022/12/28 00:20:15;;;;;;;31.23;27.60;;;8.60;99.90;;;;;;4245408;28;20031;-83
2022/12/28 00:22:35;;;;;;;29.70;25.83;;;8.60;99.90;;;;;;4236268;28;20058;-82
2022/12/28 00:24:55;;;;;;;36.38;30.33;;;8.60;99.90;;;;;;4233692;28;20394;-82
2022/12/28 00:27:15;;;;;;;30.25;27.33;;;8.60;99.90;;;;;;4229752;28;20043;-82
2022/12/28 00:29:34;;;;;;;33.47;29.92;;;8.60;99.90;;;;;;4235472;28;20055;-81
2022/12/28 00:31:55;;;;;;;35.00;28.60;;;8.50;99.90;;;;;;4221978;28;20385;-82
2022/12/28 00:34:15;;;;;;;32.40;28.13;;;8.50;99.90;;;;;;4215624;28;20036;-83
2022/12/28 00:36:35;;;;;;;31.52;28.00;;;8.50;99.90;;;;;;4211719;28;20067;-82
2022/12/28 00:39:14;;;;;;;35.33;28.25;;;8.50;99.90;;;;;;4218703;28;20292;-82
2022/12/28 00:41:34;;;;;;;28.60;25.58;;;8.60;99.90;;;;;;4226474;28;20073;-82
2022/12/28 00:43:54;;;;;;;27.67;24.90;;;8.60;99.90;;;;;;4228507;28;20116;-82
2022/12/28 00:46:13;;;;;;;32.63;27.85;;;8.60;99.90;;;;;;4230473;28;20042;-82
2022/12/28 00:48:34;;;;;;;32.53;29.02;;;8.70;99.90;;;;;;4236890;28;20070;-82
2022/12/28 00:51:12;;;;;;;37.97;30.83;;;8.60;99.90;;;;;;4224038;28;20235;-82
2022/12/28 00:53:32;;;;;;;40.67;30.92;;;8.60;99.90;;;;;;4218044;28;20058;-82
2022/12/28 00:55:51;;;;;;;31.02;24.75;;;8.60;99.90;;;;;;4228750;28;20107;-82
2022/12/28 00:58:11;;;;;;;29.00;25.10;;;8.60;99.90;;;;;;4232116;28;20051;-82
2022/12/28 01:00:32;;;;;;;23.65;21.50;;;8.60;99.90;;;;;;4225903;28;20062;-82
2022/12/28 01:02:53;;;;;;;22.95;19.95;;;8.60;99.90;;;;;;4214394;28;20047;-83
2022/12/28 01:05:13;;;;;;;18.13;16.63;;;8.60;99.90;;;;;;4213978;28;20375;-83
2022/12/28 01:07:33;;;;;;;17.27;16.05;;;8.60;99.90;;;;;;4224657;28;20802;-83
2022/12/28 01:09:52;;;;;;;18.80;17.48;;;8.60;99.90;;;;;;4231686;28;20388;-83
2022/12/28 01:12:12;;;;;;;17.13;15.70;;;8.50;99.90;;;;;;4228038;28;20055;-82
2022/12/28 01:14:32;;;;;;;15.75;14.18;;;8.50;99.90;;;;;;4230252;28;20052;-82
2022/12/28 01:16:53;;;;;;;14.40;13.40;;;8.50;99.90;;;;;;4231125;28;20282;-82
2022/12/28 01:19:18;;;;;;;14.82;13.75;;;8.50;99.90;;;;;;4230610;28;20043;-82
2022/12/28 01:21:38;;;;;;;14.35;13.40;;;8.50;99.90;;;;;;4231225;28;20050;-82
2022/12/28 01:24:00;;;;;;;13.40;12.00;;;8.50;99.90;;;;;;4227418;28;20042;-82
2022/12/28 01:26:21;;;;;;;13.20;12.50;;;8.50;99.90;;;;;;4216186;28;20054;-83
2022/12/28 01:28:41;;;;;;;14.43;13.40;;;8.50;99.90;;;;;;4229737;28;20084;-82
2022/12/28 01:31:09;;;;;;;14.02;12.85;;;8.60;99.90;;;;;;4227347;28;20066;-82
2022/12/28 01:33:29;;;;;;;13.90;12.77;;;8.60;99.90;;;;;;4214986;28;20044;-82
2022/12/28 01:35:49;;;;;;;17.33;15.75;;;8.70;99.90;;;;;;4217262;28;20233;-82
2022/12/28 01:38:08;;;;;;;18.90;17.15;;;8.70;99.90;;;;;;4234040;28;20054;-82
2022/12/28 01:40:28;;;;;;;20.08;17.52;;;8.60;99.90;;;;;;4226737;28;20146;-82
2022/12/28 01:42:48;;;;;;;21.50;19.33;;;8.60;99.90;;;;;;4226444;28;20078;-82
2022/12/28 01:45:19;;;;;;;20.52;18.60;;;8.50;99.90;;;;;;4222206;28;20050;-82
2022/12/28 01:47:39;;;;;;;19.73;17.70;;;8.50;99.90;;;;;;4210434;28;20042;-81
2022/12/28 01:50:04;;;;;;;20.23;18.30;;;8.40;99.90;;;;;;4231139;28;20051;-82
2022/12/28 01:52:31;;;;;;;20.23;18.23;;;8.50;99.90;;;;;;4218040;28;20130;-82
2022/12/28 01:55:10;;;;;;;20.70;17.77;;;8.40;99.90;;;;;;4233118;28;20111;-82
2022/12/28 01:57:34;;;;;;;19.70;17.80;;;8.50;99.90;;;;;;4230372;28;20047;-82
2022/12/28 02:00:01;;;;;;;19.05;17.23;;;8.50;99.90;;;;;;4225541;28;20086;-82
2022/12/28 02:02:22;;;;;;;18.20;16.38;;;8.40;99.90;;;;;;4229718;28;20227;-82
2022/12/28 02:04:44;;;;;;;25.45;20.10;;;8.40;99.90;;;;;;4231139;28;20348;-82
2022/12/28 02:07:04;;;;;;;33.70;22.67;;;8.40;99.90;;;;;;4228185;28;20047;-82
2022/12/28 02:09:37;;;;;;;29.90;20.23;;;8.30;99.90;;;;;;4219023;28;20270;-82
2022/12/28 02:11:59;;;;;;;32.67;22.98;;;8.30;99.90;;;;;;4228144;28;20047;-82
2022/12/28 02:14:21;;;;;;;31.43;22.03;;;8.30;99.90;;;;;;4231461;28;20058;-82
2022/12/28 02:16:42;;;;;;;32.00;22.67;;;8.30;99.90;;;;;;4224176;28;20419;-82
2022/12/28 02:19:04;;;;;;;23.13;19.58;;;8.20;99.90;;;;;;4234826;28;20126;-82
2022/12/28 02:21:42;;;;;;;20.27;18.58;;;8.20;99.90;;;;;;4232005;28;20055;-82
2022/12/28 02:24:42;;;;;;;21.52;19.42;;;8.30;99.90;;;;;;4222364;28;20042;-82
2022/12/28 02:27:16;;;;;;;21.92;17.98;;;8.20;99.90;;;;;;4231882;28;20054;-82
2022/12/28 02:29:43;;;;;;;25.45;20.95;;;8.20;99.90;;;;;;4213818;28;20074;-82
2022/12/28 02:32:30;;;;;;;21.67;19.33;;;8.20;99.90;;;;;;4223643;28;20055;-82
2022/12/28 02:34:53;;;;;;;19.17;17.42;;;8.20;99.90;;;;;;4214279;28;20051;-82
2022/12/28 02:37:39;;;;;;;;;;;8.30;99.90;;;;;;4229724;28;20042;-82
2022/12/28 02:40:18;;;;;;;21.92;19.80;;;8.30;99.90;;;;;;4221681;28;19946;-82
2022/12/28 02:42:39;;;;;;;22.05;20.15;;;8.40;99.90;;;;;;4225202;28;20113;-82
2022/12/28 02:50:19;;;;;;;21.67;19.58;;;8.30;99.90;;;;;;4228450;28;20047;-82
2022/12/28 02:52:54;;;;;;;24.27;21.50;;;8.20;99.90;;;;;;4227568;28;20134;-82
2022/12/28 02:58:29;;;;;;;29.27;24.02;;;8.20;99.90;;;;;;4230239;28;20085;-82
2022/12/28 03:00:51;;;;;;;23.67;21.40;;;8.20;99.90;;;;;;4227356;28;20288;-82
2022/12/28 03:03:30;;;;;;;24.38;22.08;;;8.20;99.90;;;;;;4230971;28;20299;-83
2022/12/28 03:08:57;;;;;;;23.42;21.00;;;8.20;99.90;;;;;;4227982;28;20047;-82
2022/12/28 03:11:22;;;;;;;23.35;21.02;;;8.30;99.90;;;;;;4231009;28;20047;-82
2022/12/28 03:13:56;;;;;;;23.27;20.98;;;8.20;99.90;;;;;;4214901;28;20385;-82
2022/12/28 03:16:30;;;;;;;22.20;19.88;;;8.30;99.90;;;;;;4230663;28;20074;-82
2022/12/28 03:32:36;;;;;;;26.83;21.58;;;8.10;99.90;;;;;;4227054;28;20055;-82
2022/12/28 03:34:56;;;;;;;25.15;22.15;;;8.10;99.90;;;;;;4221400;28;20062;-82
2022/12/28 03:37:38;;;;;;;22.73;20.38;;;8.00;99.90;;;;;;4227493;28;20054;-82
2022/12/28 03:40:08;;;;;;;23.10;20.92;;;8.10;99.90;;;;;;4228571;28;20503;-82
2022/12/28 03:45:45;;;;;;;23.27;20.33;;;8.20;99.90;;;;;;4228803;28;20070;-82
2022/12/28 03:48:08;;;;;;;21.10;19.30;;;8.20;99.90;;;;;;4218104;28;20138;-83
2022/12/28 03:50:30;;;;;;;22.48;20.13;;;8.20;99.90;;;;;;4220092;28;20052;-82
2022/12/28 03:52:51;;;;;;;22.23;20.03;;;8.20;99.90;;;;;;4228363;28;20115;-82
2022/12/28 03:55:15;;;;;;;21.65;19.52;;;8.10;99.90;;;;;;4222711;28;20285;-82
2022/12/28 03:57:35;;;;;;;19.20;17.63;;;8.20;99.90;;;;;;4227890;28;20057;-82
2022/12/28 03:59:55;;;;;;;22.25;19.90;;;8.20;99.90;;;;;;4220374;28;20055;-82
2022/12/28 04:02:14;;;;;;;22.55;20.33;;;8.30;99.90;;;;;;4229574;28;20089;-82
2022/12/28 04:04:35;;;;;;;22.77;20.50;;;8.20;99.90;;;;;;4222515;28;20112;-82
2022/12/28 04:06:55;;;;;;;25.50;22.23;;;8.20;99.90;;;;;;4225925;28;20044;-83
2022/12/28 04:09:15;;;;;;;25.13;22.60;;;8.30;99.90;;;;;;4225110;28;20112;-82
2022/12/28 04:11:35;;;;;;;23.10;21.02;;;8.30;99.90;;;;;;4226271;28;20107;-82
2022/12/28 04:13:55;;;;;;;22.75;20.83;;;8.30;99.90;;;;;;4227420;28;20415;-82
2022/12/28 04:16:15;;;;;;;21.77;19.92;;;8.30;99.90;;;;;;4221952;28;20047;-82
2022/12/28 04:18:35;;;;;;;24.30;20.95;;;8.20;99.90;;;;;;4226745;28;20047;-82
2022/12/28 04:20:56;;;;;;;21.63;19.38;;;8.20;99.90;;;;;;4222875;28;20076;-82
2022/12/28 04:23:16;;;;;;;20.63;18.77;;;8.20;99.90;;;;;;4231743;28;20055;-82
2022/12/28 04:25:36;;;;;;;21.27;19.35;;;8.20;99.90;;;;;;4206692;28;20142;-81
2022/12/28 04:27:56;;;;;;;23.42;21.13;;;8.20;99.90;;;;;;4222875;28;20112;-82
2022/12/28 04:30:16;;;;;;;19.70;17.98;;;8.20;99.90;;;;;;4232629;28;20392;-82
2022/12/28 04:32:35;;;;;;;22.40;20.20;;;8.20;99.90;;;;;;4218725;28;20043;-82
2022/12/28 04:34:56;;;;;;;22.92;20.48;;;8.20;99.90;;;;;;4223276;28;20043;-82
2022/12/28 04:37:15;;;;;;;22.63;20.70;;;8.30;99.90;;;;;;4230317;28;20050;-83
2022/12/28 04:39:35;;;;;;;21.73;19.63;;;8.30;99.90;;;;;;4231622;28;20081;-83
2022/12/28 04:42:15;;;;;;;21.75;19.73;;;8.30;99.90;;;;;;4233027;28;20145;-82
2022/12/28 04:44:35;;;;;;;20.77;18.85;;;8.30;99.90;;;;;;4234865;28;20055;-82
2022/12/28 04:46:55;;;;;;;21.38;19.55;;;8.30;99.90;;;;;;4225048;28;20083;-82
2022/12/28 04:49:15;;;;;;;22.88;20.13;;;8.20;99.90;;;;;;4224802;28;20077;-82
2022/12/28 04:51:37;;;;;;;22.15;20.23;;;8.20;99.90;;;;;;4231683;28;20050;-81
2022/12/28 04:53:57;;;;;;;21.55;19.30;;;8.20;99.90;;;;;;4225284;28;20107;-82
2022/12/28 04:56:21;;;;;;;28.55;23.60;;;8.20;99.90;;;;;;4221883;28;20055;-82
2022/12/28 04:58:42;;;;;;;29.85;26.65;;;8.30;99.90;;;;;;4216250;28;20043;-82
2022/12/28 05:01:05;;;;;;;22.80;20.60;;;8.30;99.90;;;;;;4232796;28;20044;-82
2022/12/28 05:03:25;;;;;;;26.80;23.70;;;8.30;99.90;;;;;;4244418;28;20096;-83
2022/12/28 05:05:46;;;;;;;27.42;22.25;;;8.30;99.90;;;;;;4246928;28;20085;-83
2022/12/28 05:08:06;;;;;;;37.05;25.33;;;8.30;99.90;;;;;;4243246;28;20039;-83
2022/12/28 05:11:00;;;;;;;37.95;26.50;;;8.30;99.90;;;;;;4239605;28;20035;-83
2022/12/28 05:13:20;;;;;;;33.05;27.35;;;8.30;99.90;;;;;;4150816;28;20081;-83
2022/12/28 05:15:40;;;;;;;21.70;19.67;;;8.30;99.90;;;;;;4152716;28;20097;-82
2022/12/28 05:18:00;;;;;;;22.30;20.02;;;8.30;99.90;;;;;;4149011;28;20155;-82
2022/12/28 05:20:20;;;;;;;22.50;20.05;;;8.30;99.90;;;;;;4155690;28;20048;-82
2022/12/28 05:22:40;;;;;;;21.75;19.20;;;8.40;99.90;;;;;;4153080;28;20113;-82
2022/12/28 05:25:00;;;;;;;20.85;18.95;;;8.40;99.90;;;;;;4150844;28;20388;-82
2022/12/28 05:27:20;;;;;;;20.88;18.80;;;8.30;99.90;;;;;;4155229;28;20084;-82
2022/12/28 05:29:40;;;;;;;21.15;19.02;;;8.30;99.90;;;;;;4157391;28;20056;-82
2022/12/28 05:32:00;;;;;;;22.73;20.65;;;8.30;99.90;;;;;;4152833;28;20130;-82
2022/12/28 05:34:20;;;;;;;21.23;19.17;;;8.30;99.90;;;;;;4153696;28;20045;-82
2022/12/28 05:36:40;;;;;;;19.25;17.55;;;8.20;99.90;;;;;;4151923;28;20045;-82
2022/12/28 05:39:00;;;;;;;21.13;19.00;;;8.20;99.90;;;;;;4152073;28;20296;-82
2022/12/28 05:41:26;;;;;;;21.02;18.90;;;8.30;99.90;;;;;;4151884;28;20049;-83
2022/12/28 05:43:46;;;;;;;20.27;18.63;;;8.30;99.90;;;;;;4154572;28;20049;-82
2022/12/28 05:46:09;;;;;;;21.98;18.20;;;8.30;99.90;;;;;;4148111;28;20053;-82
2022/12/28 05:48:31;;;;;;;20.80;17.42;;;8.30;99.90;;;;;;4147395;28;20125;-83
2022/12/28 05:50:51;;;;;;;20.00;18.02;;;8.30;99.90;;;;;;4231561;28;20362;-82
2022/12/28 05:53:16;;;;;;;18.60;16.77;;;8.30;99.90;;;;;;4228858;28;20071;-82
2022/12/28 05:55:36;;;;;;;19.27;17.35;;;8.30;99.90;;;;;;4222182;28;20089;-82
2022/12/28 05:57:56;;;;;;;18.23;16.70;;;8.20;99.90;;;;;;4229641;28;20232;-83
2022/12/28 06:00:16;;;;;;;18.60;17.10;;;8.20;99.90;;;;;;4226503;28;20085;-83
2022/12/28 06:02:36;;;;;;;19.58;17.63;;;8.20;99.90;;;;;;4228127;28;20250;-82
2022/12/28 06:04:56;;;;;;;19.85;18.15;;;8.30;99.90;;;;;;4230495;28;20050;-83
2022/12/28 06:07:16;;;;;;;20.75;19.05;;;8.20;99.90;;;;;;4210935;28;20374;-82
2022/12/28 06:09:36;;;;;;;20.88;18.77;;;8.20;99.90;;;;;;4215145;28;20393;-82
2022/12/28 06:11:56;;;;;;;20.83;18.85;;;8.30;99.90;;;;;;4231347;28;20077;-83
2022/12/28 06:14:16;;;;;;;21.77;19.67;;;8.30;99.90;;;;;;4226803;28;20080;-82
2022/12/28 06:16:38;;;;;;;22.23;20.05;;;8.30;99.90;;;;;;4223301;28;20075;-82
2022/12/28 06:19:02;;;;;;;20.60;18.50;;;8.30;99.90;;;;;;4232075;28;20046;-82
2022/12/28 06:21:26;;;;;;;22.38;19.13;;;8.30;99.90;;;;;;4225432;28;20047;-82
2022/12/28 06:23:46;;;;;;;22.70;20.20;;;8.40;99.90;;;;;;4231008;28;20131;-82
2022/12/28 06:26:07;;;;;;;21.85;19.17;;;8.40;99.90;;;;;;4215804;28;20069;-84
2022/12/28 06:28:28;;;;;;;29.23;21.77;;;8.40;99.90;;;;;;4228422;28;20123;-85
2022/12/28 06:30:48;;;;;;;22.70;20.40;;;8.40;99.90;;;;;;4228839;28;20050;-84
2022/12/28 06:33:12;;;;;;;23.90;21.45;;;8.30;99.90;;;;;;4218422;28;20044;-84
2022/12/28 06:35:32;;;;;;;27.30;22.88;;;8.20;99.90;;;;;;4229700;28;20059;-84
2022/12/28 06:37:52;;;;;;;25.13;22.58;;;8.30;99.90;;;;;;4222736;28;20105;-84
2022/12/28 06:40:13;;;;;;;27.20;24.58;;;8.30;99.90;;;;;;4234441;28;20136;-84
2022/12/28 06:42:33;;;;;;;22.13;20.17;;;8.30;99.90;;;;;;4228789;28;20058;-84
2022/12/28 06:44:53;;;;;;;21.75;19.65;;;8.40;99.90;;;;;;4224715;28;20043;-84
2022/12/28 06:47:13;;;;;;;23.63;19.58;;;8.40;99.90;;;;;;4227093;28;20047;-85
2022/12/28 06:49:33;;;;;;;25.70;22.90;;;8.40;99.90;;;;;;4226105;28;20046;-84
2022/12/28 06:51:52;;;;;;;21.98;19.65;;;8.50;99.90;;;;;;4227532;28;20044;-84
2022/12/28 06:54:13;;;;;;;20.75;18.75;;;8.50;99.90;;;;;;4216339;28;20270;-85
2022/12/28 06:56:34;;;;;;;19.83;17.88;;;8.50;99.90;;;;;;4226914;28;20050;-85
2022/12/28 06:58:54;;;;;;;26.15;23.48;;;8.40;99.90;;;;;;4214342;28;20043;-84
2022/12/28 07:01:27;;;;;;;20.25;18.23;;;8.40;99.90;;;;;;4214329;28;20078;-84
2022/12/28 07:03:49;;;;;;;19.25;17.50;;;8.30;99.90;;;;;;4228407;28;20093;-84
2022/12/28 07:06:10;;;;;;;16.92;15.73;;;8.20;99.90;;;;;;4222838;28;20047;-85
2022/12/28 07:08:31;;;;;;;16.50;15.13;;;8.20;99.90;;;;;;4225739;28;20038;-85
2022/12/28 07:10:51;;;;;;;14.57;13.60;;;8.20;99.90;;;;;;4210678;28;20056;-85
2022/12/28 07:13:10;;;;;;;14.88;13.90;;;8.20;99.90;;;;;;4230648;28;20043;-85
2022/12/28 07:15:31;;;;;;;16.23;14.93;;;8.20;99.90;;;;;;4236464;28;20373;-85
2022/12/28 07:17:51;;;;;;;16.15;14.02;;;8.10;99.90;;;;;;4229696;28;20373;-85
2022/12/28 07:20:11;;;;;;;19.40;17.58;;;8.20;99.90;;;;;;4228727;28;20046;-86
2022/12/28 07:22:30;;;;;;;24.70;22.30;;;8.20;99.90;;;;;;4231454;28;20231;-85
2022/12/28 07:24:50;;;;;;;23.92;21.48;;;8.20;99.90;;;;;;4220149;28;20063;-85
2022/12/28 07:27:10;;;;;;;25.10;20.33;;;8.30;99.90;;;;;;4228582;28;20381;-85
2022/12/28 07:29:30;;;;;;;25.48;23.00;;;8.40;99.90;;;;;;4230017;28;20089;-85
2022/12/28 07:31:50;;;;;;;23.92;21.27;;;8.40;99.90;;;;;;4229954;28;20051;-85
2022/12/28 07:34:10;;;;;;;23.08;20.35;;;8.40;99.90;;;;;;4230810;28;20039;-86
2022/12/28 07:36:32;;;;;;;22.58;20.25;;;8.40;99.90;;;;;;4217344;28;20043;-85
2022/12/28 07:38:52;;;;;;;25.15;22.48;;;8.40;99.90;;;;;;4222082;28;20082;-85
2022/12/28 07:41:17;;;;;;;28.50;23.60;;;8.30;99.90;;;;;;4211928;28;20090;-85
2022/12/28 07:43:38;;;;;;;29.90;22.83;;;8.40;99.90;;;;;;4227505;28;20089;-85
2022/12/28 07:46:08;;;;;;;27.35;23.05;;;8.50;99.90;;;;;;4229051;28;20362;-86
2022/12/28 07:48:32;;;;;;;25.20;22.35;;;8.50;99.90;;;;;;4220189;28;20043;-86
2022/12/28 07:50:52;;;;;;;25.63;21.88;;;8.50;99.90;;;;;;4224279;28;20147;-84
2022/12/28 07:53:12;;;;;;;27.60;24.02;;;8.60;99.90;;;;;;4230171;28;20078;-84
2022/12/28 07:55:39;;;;;;;26.35;23.35;;;8.70;99.90;;;;;;4229617;28;20058;-85
2022/12/28 07:57:59;;;;;;;25.63;22.42;;;8.70;99.90;;;;;;4228293;28;20035;-85
2022/12/28 08:00:19;;;;;;;22.05;19.95;;;8.60;99.90;;;;;;4227338;28;20085;-85
2022/12/28 08:02:39;;;;;;;20.02;18.05;;;8.50;99.90;;;;;;4213353;28;20054;-85
2022/12/28 08:04:59;;;;;;;20.13;18.05;;;8.50;99.90;;;;;;4230240;28;20415;-85
2022/12/28 08:07:19;;;;;;;18.95;17.17;;;8.50;99.90;;;;;;4217188;28;20134;-85
2022/12/28 08:09:39;;;;;;;20.25;18.40;;;8.50;99.90;;;;;;4233137;28;20108;-85
2022/12/28 08:11:59;;;;;;;22.65;19.63;;;8.60;99.90;;;;;;4229533;28;20113;-85
2022/12/28 08:14:19;;;;;;;22.65;20.50;;;8.50;99.90;;;;;;4214879;28;20140;-84
2022/12/28 08:16:41;;;;;;;26.20;23.45;;;8.50;99.90;;;;;;4216632;28;20457;-85
2022/12/28 08:19:02;;;;;;;22.67;20.42;;;8.50;99.90;;;;;;4234194;28;20035;-84
2022/12/28 08:21:25;;;;;;;22.70;20.60;;;8.50;99.90;;;;;;4231717;28;20270;-84
2022/12/28 08:23:45;;;;;;;;;;;8.40;99.90;;;;;;4212661;28;20331;-85
2022/12/28 08:26:05;;;;;;;20.98;18.77;;;8.40;99.90;;;;;;4234447;28;19922;-85
2022/12/28 08:28:25;;;;;;;22.27;18.70;;;8.50;99.90;;;;;;4236254;28;20374;-85
2022/12/28 08:30:46;;;;;;;18.40;16.98;;;8.40;99.90;;;;;;4223360;28;20357;-85
2022/12/28 08:33:06;;;;;;;19.58;17.95;;;8.40;99.90;;;;;;4228897;28;20047;-85
2022/12/28 08:35:25;;;;;;;21.83;18.80;;;8.40;99.90;;;;;;4224208;28;20062;-85
2022/12/28 08:37:45;;;;;;;20.25;18.40;;;8.50;99.90;;;;;;4234796;28;20072;-84
2022/12/28 08:40:06;;;;;;;20.95;18.63;;;8.60;99.90;;;;;;4230864;28;20304;-84
2022/12/28 08:42:25;;;;;;;21.77;19.23;;;8.60;99.90;;;;;;4229061;28;20362;-85
2022/12/28 08:44:45;;;;;;;23.02;20.90;;;8.70;99.90;;;;;;4229600;28;20077;-84
2022/12/28 08:47:05;;;;;;;22.58;20.52;;;8.70;99.90;;;;;;4229928;28;20043;-85
2022/12/28 08:49:26;;;;;;;24.13;21.60;;;8.70;99.90;;;;;;4223869;28;20050;-84
2022/12/28 08:51:45;;;;;;;20.10;18.20;;;8.80;99.90;;;;;;4230670;28;20081;-84
2022/12/28 08:54:06;;;;;;;20.35;18.25;;;8.80;99.90;;;;;;4223727;28;20051;-84
2022/12/28 08:56:29;;;;;;;22.58;20.23;;;8.90;99.90;;;;;;4230816;28;20088;-85
2022/12/28 08:58:50;;;;;;;21.88;19.73;;;8.80;99.90;;;;;;4233524;28;20131;-85
2022/12/28 09:01:12;;;;;;;24.05;21.67;;;8.90;99.90;;;;;;4232109;28;20115;-84
2022/12/28 09:03:35;;;;;;;24.25;22.05;;;8.90;99.90;;;;;;4224647;28;20097;-85
2022/12/28 09:05:55;;;;;;;25.88;21.88;;;8.90;99.90;;;;;;4224942;28;20045;-84
2022/12/28 09:08:15;;;;;;;22.45;20.02;;;8.90;99.90;;;;;;4232547;28;20299;-85
2022/12/28 09:10:36;;;;;;;33.25;28.10;;;8.90;99.90;;;;;;4224316;28;20374;-84
2022/12/28 09:12:56;;;;;;;27.80;23.80;;;8.90;99.90;;;;;;4231074;28;20086;-84
2022/12/28 09:15:16;;;;;;;26.25;23.42;;;8.90;99.90;;;;;;4231819;28;20111;-84
2022/12/28 09:17:36;;;;;;;30.83;23.23;;;8.90;99.90;;;;;;4228755;28;20082;-84
2022/12/28 09:19:56;;;;;;;38.33;24.17;;;8.90;99.90;;;;;;4222668;28;20070;-84
2022/12/28 09:22:16;;;;;;;24.38;21.73;;;9.00;99.90;;;;;;4231930;28;20111;-84
2022/12/28 09:24:36;;;;;;;29.80;22.38;;;9.00;99.90;;;;;;4216444;28;20055;-85
2022/12/28 09:26:56;;;;;;;41.35;22.50;;;9.10;99.90;;;;;;4228883;28;20238;-83
2022/12/28 09:29:16;;;;;;;26.52;21.58;;;9.20;99.90;;;;;;4227858;28;20151;-83
2022/12/28 09:31:39;;;;;;;26.92;20.80;;;9.10;99.90;;;;;;4230712;28;20289;-83
2022/12/28 09:34:02;;;;;;;22.73;20.00;;;9.20;99.90;;;;;;4224386;28;20055;-83
2022/12/28 09:36:43;;;;;;;24.20;19.65;;;9.20;99.90;;;;;;4231253;28;20039;-83
2022/12/28 09:39:11;;;;;;;21.88;19.60;;;9.20;99.90;;;;;;4232866;28;20054;-83
2022/12/28 09:41:49;;;;;;;22.50;19.85;;;9.10;99.90;;;;;;4226092;28;20419;-83
2022/12/28 09:44:15;;;;;;;24.75;19.85;;;9.10;99.90;;;;;;4215575;28;20324;-83
2022/12/28 09:47:17;;;;;;;27.25;22.27;;;9.10;99.90;;;;;;4219606;28;20036;-83
2022/12/28 09:49:59;;;;;;;20.58;18.55;;;9.20;99.90;;;;;;4229244;28;20031;-83
2022/12/28 09:52:35;;;;;;;20.70;18.60;;;9.20;99.90;;;;;;4241138;28;20072;-83
2022/12/28 09:55:02;;;;;;;18.20;16.35;;;9.30;99.90;;;;;;4224385;28;20408;-83
2022/12/28 09:57:31;;;;;;;19.60;17.30;;;9.30;99.90;;;;;;4228329;28;20098;-83
2022/12/28 09:59:51;;;;;;;19.77;17.83;;;9.30;99.90;;;;;;4230176;28;20051;-83
2022/12/28 10:02:32;;;;;;;17.98;16.23;;;9.30;99.90;;;;;;4219537;28;20371;-84
2022/12/28 10:04:52;;;;;;;17.48;15.68;;;9.40;99.90;;;;;;4233062;28;20062;-84
2022/12/28 10:07:12;;;;;;;21.98;19.67;;;9.40;99.90;;;;;;4224671;28;20047;-84
2022/12/28 10:09:33;;;;;;;22.85;19.05;;;9.50;99.90;;;;;;4229115;28;20051;-84
2022/12/28 10:11:53;;;;;;;19.08;17.48;;;9.50;99.90;;;;;;4222861;28;20075;-84
2022/12/28 10:14:26;;;;;;;17.60;16.20;;;9.50;99.90;;;;;;4215170;28;20048;-84
2022/12/28 10:16:47;;;;;;;17.40;15.80;;;9.40;99.90;;;;;;4213480;28;20039;-84
2022/12/28 10:19:09;;;;;;;14.48;13.00;;;9.50;99.90;;;;;;4216430;28;20047;-84
2022/12/28 10:21:32;;;;;;;16.35;15.13;;;9.50;99.90;;;;;;4230037;28;20101;-84
2022/12/28 10:23:55;;;;;;;17.80;16.60;;;9.50;99.90;;;;;;4215250;28;20056;-84
2022/12/28 10:26:36;;;;;;;17.77;16.17;;;9.60;99.90;;;;;;4224196;28;20057;-84
2022/12/28 10:28:59;;;;;;;17.00;15.50;;;9.70;99.90;;;;;;4229427;28;20056;-84
2022/12/28 10:31:34;;;;;;;15.52;14.32;;;9.70;99.90;;;;;;4228892;28;20266;-84
2022/12/28 10:33:55;;;;;;;14.90;13.90;;;9.80;99.90;;;;;;4216960;28;20090;-84
2022/12/28 10:36:17;;;;;;;12.73;11.60;;;9.90;99.90;;;;;;4228903;28;20089;-84
2022/12/28 10:38:40;;;;;;;13.85;12.95;;;9.80;99.90;;;;;;4222816;28;20378;-84
2022/12/28 10:41:05;;;;;;;14.82;13.75;;;9.90;99.90;;;;;;4228272;28;20081;-84
2022/12/28 10:43:34;;;;;;;14.70;13.50;;;9.90;99.90;;;;;;4223110;28;20116;-83
2022/12/28 10:45:57;;;;;;;15.13;13.63;;;10.00;99.90;;;;;;4229242;28;20112;-83
2022/12/28 10:48:37;;;;;;;16.75;15.38;;;10.00;99.90;;;;;;4229722;28;20043;-83
2022/12/28 10:51:10;;;;;;;19.55;17.65;;;10.00;99.90;;;;;;4226188;28;20365;-84
2022/12/28 10:53:39;;;;;;;19.77;17.65;;;10.10;99.90;;;;;;4214469;28;20074;-84
2022/12/28 10:56:04;;;;;;;17.92;16.45;;;10.20;99.90;;;;;;4214545;28;20051;-84
2022/12/28 10:58:26;;;;;;;23.35;21.20;;;10.10;99.90;;;;;;4229991;28;20112;-85
2022/12/28 11:00:56;;;;;;;19.17;17.35;;;10.20;99.90;;;;;;4234829;28;20054;-85
2022/12/28 11:03:17;;;;;;;17.95;16.60;;;10.20;99.90;;;;;;4224104;28;20374;-85
2022/12/28 11:05:37;;;;;;;25.30;16.48;;;10.20;99.90;;;;;;4222543;28;20363;-85
2022/12/28 11:08:04;;;;;;;15.65;14.27;;;10.20;99.90;;;;;;4232621;28;20071;-85
2022/12/28 11:10:27;;;;;;;16.45;15.10;;;10.20;99.90;;;;;;4230666;28;20391;-85
2022/12/28 11:12:48;;;;;;;18.10;16.10;;;10.20;99.90;;;;;;4209452;28;20042;-85
2022/12/28 11:15:16;;;;;;;14.77;13.88;;;10.20;99.90;;;;;;4228375;28;20364;-85
2022/12/28 11:17:36;;;;;;;14.45;12.98;;;10.30;99.90;;;;;;4231334;28;20088;-85
2022/12/28 11:20:04;;;;;;;15.50;14.27;;;10.30;99.90;;;;;;4225147;28;20066;-85
2022/12/28 11:22:27;;;;;;;14.25;13.02;;;10.30;99.90;;;;;;4226657;28;20045;-85
2022/12/28 11:24:47;;;;;;;;;;;10.30;99.90;;;;;;4215607;28;20052;-85
2022/12/28 11:27:12;;;;;;;13.68;12.77;;;10.40;99.90;;;;;;4232495;28;19950;-85
2022/12/28 11:29:32;;;;;;;12.18;11.48;;;10.30;99.90;;;;;;4228041;28;20266;-85
2022/12/28 11:32:05;;;;;;;13.82;12.68;;;10.40;99.90;;;;;;4219446;28;20436;-85
2022/12/28 11:34:28;;;;;;;10.75;10.05;;;10.40;99.90;;;;;;4227878;28;20081;-85
2022/12/28 11:36:48;;;;;;;11.70;10.80;;;10.50;99.90;;;;;;4229329;28;20046;-85
2022/12/28 11:39:26;;;;;;;13.48;12.55;;;10.50;99.90;;;;;;4232559;28;20108;-85
2022/12/28 11:41:49;;;;;;;13.57;12.38;;;10.60;99.90;;;;;;4230314;28;20051;-85
2022/12/28 11:44:29;;;;;;;13.95;12.43;;;10.70;99.90;;;;;;4231255;28;20058;-85
2022/12/28 11:47:01;;;;;;;13.50;12.50;;;10.90;99.90;;;;;;4232862;28;20046;-84
2022/12/28 11:49:29;;;;;;;13.57;12.18;;;10.90;99.90;;;;;;4234162;28;20042;-84
2022/12/28 11:52:15;;;;;;;13.73;12.55;;;10.90;99.90;;;;;;4214150;28;20042;-84
2022/12/28 11:54:38;;;;;;;13.52;12.50;;;11.10;99.90;;;;;;4216501;28;20047;-84
2022/12/28 11:56:58;;;;;;;12.18;11.50;;;11.20;99.90;;;;;;4229605;28;20374;-84
2022/12/28 11:59:19;;;;;;;13.27;11.55;;;11.20;99.90;;;;;;4233697;28;20078;-84
2022/12/28 12:01:41;;;;;;;13.27;12.23;;;11.20;99.90;;;;;;4234586;28;20111;-84
2022/12/28 12:04:14;;;;;;;11.30;10.57;;;11.20;99.90;;;;;;4232397;28;20077;-84
2022/12/28 12:06:41;;;;;;;12.90;11.82;;;11.10;99.90;;;;;;4219325;28;20078;-84
2022/12/28 12:09:01;;;;;;;13.20;11.82;;;11.10;99.90;;;;;;4224083;28;20078;-84
2022/12/28 12:11:24;;;;;;;11.95;10.98;;;11.20;99.90;;;;;;4231878;28;20063;-84
2022/12/28 12:13:47;;;;;;;12.43;11.63;;;11.10;99.90;;;;;;4217851;28;20062;-84
2022/12/28 12:16:42;;;;;;;13.07;12.27;;;10.90;99.90;;;;;;4231086;28;20063;-84
2022/12/28 12:19:05;;;;;;;11.45;10.65;;;10.90;99.90;;;;;;4178924;28;20106;-84
2022/12/28 12:21:44;;;;;;;10.10;9.38;;;10.90;99.90;;;;;;4230995;28;20112;-84
2022/12/28 12:24:19;;;;;;;12.52;11.45;;;10.90;99.90;;;;;;4215230;28;20047;-84
2022/12/28 12:26:53;;;;;;;12.32;11.38;;;10.90;99.90;;;;;;4233443;28;20042;-84
2022/12/28 12:29:14;;;;;;;12.18;11.30;;;10.90;99.90;;;;;;4223909;28;20051;-84
2022/12/28 12:31:42;;;;;;;11.90;10.90;;;10.80;99.90;;;;;;4230605;28;20111;-84
2022/12/28 12:34:26;;;;;;;13.10;12.20;;;10.80;99.90;;;;;;4234205;28;20137;-84
2022/12/28 12:37:02;;;;;;;11.40;10.32;;;10.80;99.90;;;;;;4212347;28;20462;-84
2022/12/28 12:39:41;;;;;;;10.38;9.65;;;10.90;99.90;;;;;;4222650;28;20086;-84
2022/12/28 12:42:25;;;;;;;11.55;10.98;;;11.00;99.90;;;;;;4233627;28;20066;-80
2022/12/28 12:45:14;;;;;;;11.07;10.23;;;11.40;99.90;;;;;;4234434;28;20227;-79
2022/12/28 12:47:42;;;;;;;10.85;9.63;;;11.70;99.90;;;;;;4226422;28;20089;-80
2022/12/28 12:50:32;;;;;;;10.98;10.20;;;12.10;99.90;;;;;;4230655;28;20062;-80